RJST(METAR)
12/04 21:00
METAR RJST 041200Z 30017KT 9999 FEW030 BKN050 BKN070 03/M05 Q1022
RMK 1CU030 5SC050 7AC070 A3019 MAX WIND 23KT=
戻る
トップページへ戻る
IMOC Co,.Ltd.